KSHN

Details ICAO KSHN
Name SANDERSON FLD
Region United States
Timezone America/Los_Angeles (UTC-7.0)
Plans Departing 16
Arriving 10
Stats Elevation 273 ft / 83 m (AMSL)
Location 47.233559° -123.147544°
Runways 1
Magnetic Variation 15.716° E
Sunrise 2018-05-27 12:25:26 UTC / 2018-05-27 05:25:26 Local
Sunset 2018-05-28 03:57:01 UTC / 2018-05-27 20:57:01 Local
Advertisement - Login to hide

Runways

ID Width Length Bearing (true) Bearing (mag) Surface Threshold Offset Overrun Length
05 100 ft / 30 m 4,994 ft / 1,522 m 67.84° 52.12° Asphalt 0 ft / 0 m 0 ft / 0 m
23 100 ft / 30 m 4,994 ft / 1,522 m 247.85° 232.13° Asphalt 0 ft / 0 m 0 ft / 0 m

Map

Weather


0- 5 10 15 20 25 30 35+ Temperature / ° C

Clouds and Precipitation
Forecast for 2018-05-27 06:00 UTC. Updated 3 hours ago

Ground ~20,000 ft ~40,000 ft Winds

METAR

KSHN 270753Z AUTO 24007KT 10SM CLR 11/08 A3022 RMK AO2 SLP235 T01060078 402000061

TAF

Not found

Frequencies

Recorded 119.27 MHz ASOS
Approach 120.10 MHz SEATTLE APP/DEP
Unicom 122.80 MHz CTAF/UNICOM
Warning: Do not use this data for real-world aviation or navigation. No guarantee of current accuracy is given.